SKCL/CLO METAR and TAF weather

Enter ICAO airport designator
Station Type Date Time Source
SKCL METAR 2019/08/19 23:00 UTC NOAA

SKCL 192300Z 32010KT 9999 FEW020 SCT100 BKN300 27/18 A2989 NOSIG


Station Type Date Time Source
SKCL Decoded METAR 2019/08/19 23:00 UTC NOAA

Cali / Alfonso Bonillaaragon, Colombia (SKCL) 03-33N 076-23W 969M
Aug 19, 2019 - 07:00 PM EDT / 2019.08.19 2300 UTC
Wind: from the NW (320 degrees) at 12 MPH (10 KT):0
Visibility: greater than 7 mile(s):0
Sky conditions: mostly cloudy
Temperature: 80 F (27 C)
Dew Point: 64 F (18 C)
Relative Humidity: 57%
Pressure (altimeter): 29.89 in. Hg (1012 hPa)
ob: SKCL 192300Z 32010KT 9999 FEW020 SCT100 BKN300 27/18 A2989 NOSIG
cycle: 23

Station Type Date Time Source
SKCL TAF 2019/08/19 18:42 UTC NOAA

TAF SKCL 191630Z 1918/2018 11004KT 9999 SCT015 BKN070
TEMPO 1918/1922 5000 DZRA
BECMG 1919/1921 33012KT TX32/1919Z TN18/2011Z

Example: see airport list